Time;durP1;ratioP1;P1;durP2;ratioP2;P2;SDS_P1;SDS_P2;PMS_P1;PMS_P2;Temp;Humidity;BMP_temperature;BMP_pressure;BME280_temperature;BME280_humidity;BME280_pressure;Samples;Min_cycle;Max_cycle;Signal;HPM_P1;HPM_P2
2022/09/05 00:02:02;;;;;;;4.22;2.65;;;;;;;18.65;76.67;100418.91;5010581;28;20069;-75
2022/09/05 00:04:52;;;;;;;5.40;2.83;;;;;;;18.61;76.76;100412.31;5005921;28;20073;-75
2022/09/05 00:07:48;;;;;;;4.63;2.80;;;;;;;18.60;77.15;100416.31;5010680;28;20038;-75
2022/09/05 00:10:35;;;;;;;6.03;2.92;;;;;;;18.57;77.38;100400.97;5006469;28;20050;-75
2022/09/05 00:13:01;;;;;;;3.88;2.55;;;;;;;18.53;77.57;100400.03;5033974;28;20091;-75
2022/09/05 00:15:34;;;;;;;4.13;2.60;;;;;;;18.50;77.59;100406.38;5007080;28;20052;-75
2022/09/05 00:18:19;;;;;;;;;;;;;;;18.52;78.57;100402.00;5068259;28;20036;-75
2022/09/05 00:21:02;;;;;;;6.15;3.00;;;;;;;18.49;78.84;100401.91;5065829;28;20006;-75
2022/09/05 00:23:42;;;;;;;6.10;3.10;;;;;;;18.47;78.64;100399.44;5085325;28;20107;-76
2022/09/05 00:26:17;;;;;;;4.63;2.95;;;;;;;18.49;79.25;100397.09;5076101;28;20081;-75
2022/09/05 00:28:42;;;;;;;7.28;2.75;;;;;;;18.45;78.97;100382.09;5069335;28;20041;-75
2022/09/05 00:31:31;;;;;;;5.10;2.92;;;;;;;18.44;79.08;100382.44;5076162;28;20086;-76
2022/09/05 00:34:22;;;;;;;4.70;2.95;;;;;;;18.46;79.59;100380.09;5058994;28;20382;-75
2022/09/05 00:36:53;;;;;;;5.68;3.45;;;;;;;18.44;80.04;100382.44;5048406;28;20062;-75
2022/09/05 00:39:25;;;;;;;4.78;2.97;;;;;;;18.41;79.37;100389.56;5064411;28;20039;-75
2022/09/05 00:41:54;;;;;;;6.30;3.30;;;;;;;18.42;80.77;100388.44;5069847;28;20035;-75
2022/09/05 00:44:21;;;;;;;7.45;3.20;;;;;;;18.43;80.63;100397.69;5088748;28;20092;-75
2022/09/05 00:47:08;;;;;;;6.38;2.85;;;;;;;18.41;81.40;100398.00;5060887;28;20028;-75
2022/09/05 00:49:44;;;;;;;4.30;3.00;;;;;;;18.42;81.48;100396.84;5060952;28;20037;-75
2022/09/05 00:52:23;;;;;;;10.23;2.95;;;;;;;18.42;81.17;100394.06;5041375;28;20063;-75
2022/09/05 00:55:04;;;;;;;6.40;3.30;;;;;;;18.42;81.51;100402.47;5062812;28;20036;-75
2022/09/05 00:58:04;;;;;;;5.30;3.20;;;;;;;18.40;81.21;100410.44;5074836;28;20043;-75
2022/09/05 01:00:32;;;;;;;9.02;3.50;;;;;;;18.40;81.60;100410.44;5049423;28;20041;-76
2022/09/05 01:03:08;;;;;;;6.65;3.13;;;;;;;18.40;83.02;100410.44;5079529;28;20122;-75
2022/09/05 01:06:12;;;;;;;6.25;3.38;;;;;;;18.43;81.60;100408.91;5053330;28;20029;-75
2022/09/05 01:09:02;;;;;;;4.85;3.42;;;;;;;18.40;80.84;100418.88;5096873;28;20035;-75
2022/09/05 01:11:36;;;;;;;5.30;3.30;;;;;;;18.40;82.49;100409.63;5077537;28;20043;-75
2022/09/05 01:14:08;;;;;;;6.75;3.47;;;;;;;18.39;82.10;100417.25;5072897;28;20087;-75
2022/09/05 01:17:03;;;;;;;4.50;2.90;;;;;;;18.36;81.37;100409.50;5092303;28;20036;-75
2022/09/05 01:19:28;;;;;;;5.93;3.22;;;;;;;18.36;82.08;100412.31;5039200;28;20036;-75
2022/09/05 01:22:17;;;;;;;4.60;2.97;;;;;;;18.32;81.41;100405.75;5093581;28;20036;-75
2022/09/05 01:25:13;;;;;;;7.03;3.30;;;;;;;18.28;81.66;100413.25;5069886;28;20036;-75
2022/09/05 01:27:50;;;;;;;6.93;3.30;;;;;;;18.29;82.82;100414.88;5070980;28;20169;-75
2022/09/05 01:31:15;;;;;;;6.22;3.70;;;;;;;18.28;84.07;100410.44;5074326;28;20039;-75
2022/09/05 01:33:48;;;;;;;6.43;3.72;;;;;;;18.25;83.08;100416.75;5064827;28;20040;-75
2022/09/05 01:36:32;;;;;;;5.18;3.20;;;;;;;18.22;82.29;100414.63;5027862;28;20029;-76
2022/09/05 01:39:29;;;;;;;6.05;3.40;;;;;;;18.22;82.87;100423.03;5065923;28;20043;-76
2022/09/05 01:42:50;;;;;;;7.03;3.70;;;;;;;18.17;83.29;100414.88;5044255;28;20036;-76
2022/09/05 01:45:25;;;;;;;6.22;3.53;;;;;;;18.18;82.86;100422.13;5013655;28;20119;-76
2022/09/05 01:47:59;;;;;;;7.15;3.38;;;;;;;18.16;82.85;100425.25;5051337;28;20032;-75
2022/09/05 01:50:52;;;;;;;7.15;3.65;;;;;;;18.14;83.88;100413.56;5069571;28;20085;-76
2022/09/05 01:53:40;;;;;;;4.30;3.13;;;;;;;18.14;83.79;100429.63;5071767;28;20093;-76
2022/09/05 01:56:31;;;;;;;6.68;3.53;;;;;;;18.12;83.94;100429.13;5067975;28;20076;-75
2022/09/05 01:59:04;;;;;;;6.30;3.55;;;;;;;18.09;84.92;100431.47;5074918;28;20523;-75
2022/09/05 02:01:39;;;;;;;7.45;3.50;;;;;;;18.08;84.67;100431.81;5077590;28;20098;-75
2022/09/05 02:04:54;;;;;;;5.60;3.08;;;;;;;18.08;84.81;100429.81;5087654;28;20028;-75
2022/09/05 02:07:44;;;;;;;7.78;4.07;;;;;;;18.10;85.13;100432.28;5036564;28;20048;-75
2022/09/05 02:10:43;;;;;;;6.40;3.67;;;;;;;18.08;85.87;100435.44;5087336;28;20032;-75
2022/09/05 02:13:14;;;;;;;5.95;3.38;;;;;;;18.08;85.91;100424.22;5070783;28;20040;-75
2022/09/05 02:15:52;;;;;;;4.43;3.38;;;;;;;18.07;85.68;100432.97;5045125;28;20055;-75
2022/09/05 02:18:22;;;;;;;6.25;3.40;;;;;;;18.05;84.94;100426.88;5066645;28;20128;-75
2022/09/05 02:20:51;;;;;;;4.75;3.38;;;;;;;18.07;85.74;100428.16;5089800;28;20024;-75
2022/09/05 02:23:17;;;;;;;7.00;3.30;;;;;;;18.05;85.42;100429.69;5057688;28;20032;-76
2022/09/05 02:25:52;;;;;;;5.25;3.45;;;;;;;18.05;85.61;100424.06;5090293;28;20099;-76
2022/09/05 02:28:28;;;;;;;7.85;3.25;;;;;;;18.05;85.10;100427.72;5052610;28;20041;-75
2022/09/05 02:30:58;;;;;;;4.65;3.33;;;;;;;18.06;85.41;100422.91;5075561;28;20036;-75
2022/09/05 02:33:31;;;;;;;5.97;3.45;;;;;;;18.07;85.49;100419.72;5071459;28;20506;-75
2022/09/05 02:36:09;;;;;;;5.88;3.28;;;;;;;18.07;85.34;100411.31;5073174;28;20035;-75
2022/09/05 02:38:34;;;;;;;4.50;3.10;;;;;;;18.06;84.63;100414.47;5051345;28;20036;-75
2022/09/05 02:41:49;;;;;;;5.00;3.33;;;;;;;18.04;84.76;100414.81;5077486;28;20743;-75
2022/09/05 02:44:19;;;;;;;4.28;3.00;;;;;;;18.06;85.19;100423.72;5084894;28;20504;-75
2022/09/05 02:47:17;;;;;;;6.85;3.20;;;;;;;18.06;84.88;100425.72;5076057;28;20032;-76
2022/09/05 02:50:05;;;;;;;5.90;3.60;;;;;;;18.05;85.38;100427.72;5083826;28;20071;-75
2022/09/05 02:52:31;;;;;;;4.72;3.42;;;;;;;18.06;85.05;100429.34;5071541;28;20021;-75
2022/09/05 02:54:57;;;;;;;5.47;3.20;;;;;;;18.05;85.50;100426.88;5047008;28;20067;-75
2022/09/05 02:58:04;;;;;;;7.03;3.10;;;;;;;18.05;85.64;100422.09;5032630;28;20090;-75
2022/09/05 03:00:37;;;;;;;7.00;3.35;;;;;;;18.07;85.70;100413.31;5071940;28;20087;-75
2022/09/05 03:03:08;;;;;;;6.43;3.05;;;;;;;18.07;86.66;100427.34;5072996;28;20032;-75
2022/09/05 03:05:49;;;;;;;6.97;3.22;;;;;;;18.07;85.12;100428.16;5082705;28;20111;-75
2022/09/05 03:08:50;;;;;;;6.60;3.13;;;;;;;18.08;85.51;100435.44;5086841;28;20058;-75
2022/09/05 03:11:52;;;;;;;5.15;2.92;;;;;;;18.06;85.20;100434.97;5009699;28;20033;-75
2022/09/05 03:14:18;;;;;;;6.32;3.03;;;;;;;18.06;84.20;100434.97;5001765;28;20045;-75
2022/09/05 03:17:04;;;;;;;6.57;2.97;;;;;;;18.05;84.31;100430.53;4997828;28;20046;-75
2022/09/05 03:20:07;;;;;;;5.68;2.88;;;;;;;18.06;84.99;100431.34;4998563;28;20087;-75
2022/09/05 03:22:44;;;;;;;6.18;3.10;;;;;;;18.06;84.29;100431.34;5003430;28;20112;-75
2022/09/05 03:25:41;;;;;;;4.43;2.90;;;;;;;18.05;84.36;100433.34;4993941;28;20054;-76
2022/09/05 03:28:37;;;;;;;4.35;2.83;;;;;;;18.04;84.22;100430.84;4997401;28;20049;-76
2022/09/05 03:31:20;;;;;;;3.88;2.65;;;;;;;18.07;83.66;100435.78;5002821;28;20399;-75
2022/09/05 03:34:11;;;;;;;4.55;2.70;;;;;;;18.04;83.33;100434.47;5014395;28;20038;-75
2022/09/05 03:36:55;;;;;;;5.07;3.03;;;;;;;18.05;85.30;100433.34;5017415;28;20030;-75
2022/09/05 03:39:39;;;;;;;4.25;3.20;;;;;;;18.05;85.67;100436.16;4983496;28;20503;-75
2022/09/05 03:42:41;;;;;;;7.60;2.92;;;;;;;18.03;85.67;100434.84;5008226;28;20038;-75
2022/09/05 03:45:25;;;;;;;3.87;2.90;;;;;;;18.01;85.25;100432.38;5045252;28;20074;-75
2022/09/05 03:48:28;;;;;;;5.28;3.20;;;;;;;18.00;84.57;100436.34;5080828;28;20261;-75
2022/09/05 03:51:19;;;;;;;5.88;3.00;;;;;;;18.02;84.25;100439.63;5093006;28;20392;-75
2022/09/05 03:54:07;;;;;;;6.70;3.25;;;;;;;17.99;85.46;100437.50;5075740;28;20040;-76
2022/09/05 03:56:50;;;;;;;3.65;2.92;;;;;;;17.99;85.66;100445.13;5074333;28;20032;-75
2022/09/05 03:59:40;;;;;;;4.53;3.03;;;;;;;17.98;86.65;100446.28;5104054;28;20053;-75
2022/09/05 04:02:07;;;;;;;3.85;2.38;;;;;;;17.95;86.06;100447.81;5089595;28;20028;-75
2022/09/05 04:04:54;;;;;;;6.90;3.38;;;;;;;17.92;86.33;100447.69;5045306;28;20454;-75
2022/09/05 04:07:33;;;;;;;5.95;2.95;;;;;;;17.93;86.13;100443.69;5058006;28;20024;-75
2022/09/05 04:10:12;;;;;;;5.13;3.10;;;;;;;17.92;85.65;100447.69;5063600;28;20096;-75
2022/09/05 04:13:04;;;;;;;3.80;2.60;;;;;;;17.90;85.82;100456.44;5059779;28;20028;-75
2022/09/05 04:15:32;;;;;;;4.32;2.83;;;;;;;17.89;85.94;100454.00;5052730;28;20036;-75
2022/09/05 04:18:03;;;;;;;6.63;3.10;;;;;;;17.86;85.79;100445.09;5080434;28;20131;-75
2022/09/05 04:21:02;;;;;;;5.72;3.20;;;;;;;17.86;86.10;100458.31;5059678;28;20032;-75
2022/09/05 04:23:54;;;;;;;6.30;3.38;;;;;;;17.85;86.48;100459.47;5064170;28;20119;-75
2022/09/05 04:26:57;;;;;;;4.88;3.35;;;;;;;17.88;87.26;100455.16;5090924;28;20038;-75
2022/09/05 04:30:02;;;;;;;6.63;3.10;;;;;;;17.85;86.54;100457.47;5079698;28;20039;-75
2022/09/05 04:32:52;;;;;;;6.13;3.60;;;;;;;17.84;86.34;100460.63;5072147;28;20020;-75
2022/09/05 04:35:23;;;;;;;5.68;3.63;;;;;;;17.85;86.33;100457.47;5085918;28;20404;-75
2022/09/05 04:38:03;;;;;;;4.35;3.40;;;;;;;17.82;87.56;100446.09;5095063;28;20033;-75
2022/09/05 04:40:48;;;;;;;7.78;3.83;;;;;;;17.82;87.85;100448.91;5097311;28;20081;-75
2022/09/05 04:43:17;;;;;;;9.00;4.15;;;;;;;17.80;87.85;100454.03;5066201;28;20032;-75
2022/09/05 04:46:22;;;;;;;7.55;4.30;;;;;;;17.77;87.68;100458.34;5087951;28;20098;-75
2022/09/05 04:49:37;;;;;;;5.30;3.80;;;;;;;17.74;87.73;100463.81;5064492;28;20040;-75
2022/09/05 04:52:08;;;;;;;6.00;4.63;;;;;;;17.78;88.21;100464.78;5062955;28;20028;-75
2022/09/05 04:54:41;;;;;;;5.72;4.03;;;;;;;17.73;87.84;100467.81;5106401;28;20035;-75
2022/09/05 04:57:09;;;;;;;8.13;4.18;;;;;;;17.74;88.65;100466.63;5072788;28;20067;-75
2022/09/05 04:59:40;;;;;;;5.55;4.07;;;;;;;17.74;88.71;100461.84;5041224;28;20042;-75
2022/09/05 05:02:24;;;;;;;7.07;4.28;;;;;;;17.71;88.56;100465.34;5079322;28;20039;-75
2022/09/05 05:04:52;;;;;;;6.47;4.43;;;;;;;17.67;88.87;100484.03;5057546;28;20361;-75
2022/09/05 05:07:21;;;;;;;6.68;5.00;;;;;;;17.69;89.49;100489.31;5063180;28;20042;-75
2022/09/05 05:09:55;;;;;;;9.00;5.30;;;;;;;17.66;90.88;100493.63;5036333;28;20036;-75
2022/09/05 05:12:51;;;;;;;8.23;4.65;;;;;;;17.65;89.52;100495.59;5061631;28;20032;-75
2022/09/05 05:15:19;;;;;;;7.60;4.68;;;;;;;17.65;90.63;100495.59;5071441;28;20085;-75
2022/09/05 05:17:57;;;;;;;6.55;4.20;;;;;;;17.64;89.80;100502.41;5043584;28;20493;-75
2022/09/05 05:20:26;;;;;;;6.63;4.22;;;;;;;17.63;90.22;100514.81;5063924;28;20033;-76
2022/09/05 05:23:07;;;;;;;10.52;4.63;;;;;;;17.63;90.75;100523.25;5052882;28;20033;-75
2022/09/05 05:25:40;;;;;;;7.20;5.20;;;;;;;17.60;90.22;100518.28;5043751;28;20029;-75
2022/09/05 05:28:11;;;;;;;7.75;4.78;;;;;;;17.58;90.60;100522.63;5076841;28;20036;-75
2022/09/05 05:30:36;;;;;;;8.02;4.50;;;;;;;17.59;90.51;100530.69;5065917;28;20481;-75
2022/09/05 05:33:15;;;;;;;8.98;4.13;;;;;;;17.59;90.13;100519.44;5071049;28;20101;-75
2022/09/05 05:35:40;;;;;;;7.38;4.90;;;;;;;17.59;91.09;100524.25;5060797;28;20036;-75
2022/09/05 05:38:32;;;;;;;10.30;4.30;;;;;;;17.60;90.35;100525.88;5076728;28;20034;-75
2022/09/05 05:41:21;;;;;;;8.95;4.75;;;;;;;17.60;90.30;100531.50;5087296;28;20036;-74
2022/09/05 05:43:46;;;;;;;6.63;4.22;;;;;;;17.60;90.22;100532.31;5077816;28;20543;-75
2022/09/05 05:46:14;;;;;;;11.25;4.55;;;;;;;17.60;89.87;100529.50;5055235;28;20032;-75
2022/09/05 05:48:40;;;;;;;8.48;4.55;;;;;;;17.60;90.34;100528.69;5054919;28;21662;-75
2022/09/05 05:51:32;;;;;;;7.60;4.60;;;;;;;17.60;91.51;100529.50;5051293;28;20063;-75
2022/09/05 05:54:00;;;;;;;6.32;4.90;;;;;;;17.59;92.05;100533.50;5052815;28;20055;-75
2022/09/05 05:56:46;;;;;;;9.40;5.38;;;;;;;17.61;93.27;100525.56;5091891;28;20037;-75
2022/09/05 05:59:31;;;;;;;8.55;4.53;;;;;;;17.64;92.12;100522.06;5072087;28;20143;-75
2022/09/05 06:01:57;;;;;;;7.40;4.72;;;;;;;17.64;92.06;100533.28;5088360;28;20044;-75
2022/09/05 06:04:44;;;;;;;10.18;5.20;;;;;;;17.58;92.64;100517.81;5087565;28;20047;-75
2022/09/05 06:07:28;;;;;;;11.40;4.97;;;;;;;17.58;93.20;100523.44;5090597;28;20028;-75
2022/09/05 06:10:04;;;;;;;8.07;5.00;;;;;;;17.59;93.40;100541.91;5086540;28;20059;-75
2022/09/05 06:13:01;;;;;;;9.23;5.13;;;;;;;17.61;93.04;100542.41;5092261;28;20476;-75
2022/09/05 06:15:58;;;;;;;7.30;4.65;;;;;;;17.61;92.02;100538.78;5074650;28;20044;-76
2022/09/05 06:18:58;;;;;;;10.57;5.20;;;;;;;17.62;91.79;100541.22;5095379;28;20032;-76
2022/09/05 06:21:42;;;;;;;8.57;5.28;;;;;;;17.64;92.06;100538.91;5080031;28;20016;-75
2022/09/05 06:24:26;;;;;;;9.65;6.40;;;;;;;17.69;93.90;100534.25;5081603;28;20020;-76
2022/09/05 06:27:10;;;;;;;8.82;5.22;;;;;;;17.75;94.13;100528.09;5092758;28;20063;-75
2022/09/05 06:30:08;;;;;;;7.95;4.88;;;;;;;17.78;92.32;100526.59;5084417;28;20092;-76
2022/09/05 06:32:56;;;;;;;6.63;4.20;;;;;;;17.81;92.40;100523.13;5057777;28;20028;-75
2022/09/05 06:35:48;;;;;;;5.57;3.95;;;;;;;17.85;92.22;100538.13;5085377;28;20040;-75
2022/09/05 06:38:30;;;;;;;9.63;5.60;;;;;;;17.89;91.18;100539.09;5067302;28;20036;-75
2022/09/05 06:41:43;;;;;;;7.03;3.90;;;;;;;17.93;91.80;100537.22;5058177;28;20059;-75
2022/09/05 06:44:36;;;;;;;7.35;3.90;;;;;;;17.98;90.66;100539.84;5034602;28;20048;-75
2022/09/05 06:47:13;;;;;;;7.15;4.50;;;;;;;18.01;93.13;100538.31;5076653;28;20088;-75
2022/09/05 06:49:46;;;;;;;8.95;5.80;;;;;;;18.05;93.74;100536.47;5095899;28;20086;-71
2022/09/05 06:52:11;;;;;;;10.02;6.10;;;;;;;18.06;97.21;100549.38;5041993;28;20021;-69
2022/09/05 06:55:10;;;;;;;6.35;4.32;;;;;;;18.13;92.21;100546.81;5056933;28;20062;-76
2022/09/05 06:57:48;;;;;;;7.28;4.28;;;;;;;18.20;93.16;100546.28;5041520;28;20741;-71
2022/09/05 07:00:28;;;;;;;8.73;5.30;;;;;;;18.23;92.85;100554.81;5068040;28;20725;-71
2022/09/05 07:03:15;;;;;;;7.10;4.47;;;;;;;18.27;92.29;100550.16;5060746;28;20039;-73
2022/09/05 07:06:00;;;;;;;8.32;5.40;;;;;;;18.32;93.23;100546.31;5054732;28;20024;-73
2022/09/05 07:08:44;;;;;;;10.70;5.13;;;;;;;18.37;93.35;100537.66;5054660;28;20028;-73
2022/09/05 07:11:17;;;;;;;8.38;4.90;;;;;;;18.43;92.95;100535.44;5059584;28;20024;-73
2022/09/05 07:13:48;;;;;;;6.28;4.40;;;;;;;18.48;92.37;100538.06;5057464;28;20036;-73
2022/09/05 07:16:16;;;;;;;10.65;5.78;;;;;;;18.55;92.59;100538.28;5078911;28;20036;-74
2022/09/05 07:18:54;;;;;;;8.75;5.75;;;;;;;18.60;95.41;100520.38;5078931;28;20084;-73
2022/09/05 07:21:39;;;;;;;9.85;4.88;;;;;;;18.65;93.02;100514.53;5058645;28;20078;-73
2022/09/05 07:24:24;;;;;;;7.28;4.95;;;;;;;18.72;94.39;100506.31;5099269;28;20078;-73
2022/09/05 07:26:50;;;;;;;6.47;4.10;;;;;;;18.80;91.95;100510.25;5088857;28;20032;-73
2022/09/05 07:29:18;;;;;;;5.80;4.13;;;;;;;18.86;90.96;100514.47;5063461;28;20115;-73
2022/09/05 07:31:46;;;;;;;5.82;3.85;;;;;;;18.93;90.83;100518.34;5052002;28;20025;-73
2022/09/05 07:34:13;;;;;;;6.55;4.13;;;;;;;19.01;92.47;100512.97;5049228;28;20036;-73
2022/09/05 07:36:45;;;;;;;8.23;3.60;;;;;;;19.09;90.55;100512.03;5050839;28;20025;-73
2022/09/05 07:39:14;;;;;;;8.53;3.73;;;;;;;19.17;92.15;100516.72;5060996;28;20028;-73
2022/09/05 07:41:40;;;;;;;6.03;3.25;;;;;;;19.26;89.97;100514.63;5057638;28;20024;-73
2022/09/05 07:44:14;;;;;;;6.07;3.60;;;;;;;19.38;89.35;100514.59;5088647;28;20028;-74
2022/09/05 07:46:40;;;;;;;7.15;3.55;;;;;;;19.51;89.13;100511.78;5060779;28;20028;-74
2022/09/05 07:49:15;;;;;;;7.95;3.72;;;;;;;19.62;89.71;100508.09;5075743;28;20040;-73
2022/09/05 07:51:55;;;;;;;9.55;3.85;;;;;;;19.76;90.54;100504.94;5067286;28;20025;-74
2022/09/05 07:54:26;;;;;;;9.07;3.83;;;;;;;19.89;90.00;100505.69;5046237;28;20037;-73
2022/09/05 07:57:02;;;;;;;7.15;3.67;;;;;;;20.00;89.51;100506.03;5029568;28;20422;-73
2022/09/05 07:59:30;;;;;;;7.65;3.55;;;;;;;20.12;89.93;100503.16;5075510;28;20438;-73
2022/09/05 08:01:56;;;;;;;6.88;3.30;;;;;;;20.22;88.91;100502.63;5059144;28;20103;-74
2022/09/05 08:04:29;;;;;;;6.60;3.15;;;;;;;20.35;89.64;100511.88;5036176;28;20037;-73
2022/09/05 08:06:59;;;;;;;8.80;3.15;;;;;;;20.48;88.88;100510.63;5085434;28;20064;-73
2022/09/05 08:09:30;;;;;;;6.50;3.25;;;;;;;20.65;87.66;100517.16;5068689;28;20120;-73
2022/09/05 08:12:01;;;;;;;5.18;2.80;;;;;;;20.82;85.88;100519.63;5074612;28;20039;-73
2022/09/05 08:14:38;;;;;;;5.72;2.80;;;;;;;20.98;84.72;100511.16;5044021;28;20115;-73
2022/09/05 08:17:09;;;;;;;7.07;2.55;;;;;;;21.13;85.12;100515.16;5072411;28;20400;-74
2022/09/05 08:19:48;;;;;;;4.70;2.55;;;;;;;21.25;84.51;100519.88;5043383;28;20033;-74
2022/09/05 08:22:23;;;;;;;5.93;2.50;;;;;;;21.37;83.55;100514.97;5064745;28;20028;-74
2022/09/05 08:25:09;;;;;;;4.97;2.95;;;;;;;21.50;82.85;100512.00;5061115;28;20034;-74
2022/09/05 08:27:50;;;;;;;8.52;3.13;;;;;;;21.62;81.88;100512.72;5059044;28;20036;-74
2022/09/05 08:30:16;;;;;;;5.63;2.67;;;;;;;21.75;82.31;100516.22;5047608;28;20040;-74
2022/09/05 08:32:57;;;;;;;6.22;2.75;;;;;;;21.94;79.27;100518.25;5029698;28;20469;-74
2022/09/05 08:35:53;;;;;;;6.25;2.45;;;;;;;22.12;79.45;100512.16;5057986;28;20052;-73
2022/09/05 08:38:18;;;;;;;6.20;2.40;;;;;;;22.22;79.11;100511.59;5052327;28;20033;-73
2022/09/05 08:40:51;;;;;;;5.00;2.33;;;;;;;22.34;77.91;100508.59;5043325;28;20440;-73
2022/09/05 08:43:33;;;;;;;8.38;2.53;;;;;;;22.45;77.40;100515.25;5075465;28;20070;-73
2022/09/05 08:46:10;;;;;;;8.77;2.40;;;;;;;22.54;77.78;100512.22;5075065;28;20082;-73
2022/09/05 08:48:39;;;;;;;6.75;2.50;;;;;;;22.62;76.93;100513.16;5053682;28;20081;-73
2022/09/05 08:51:19;;;;;;;3.88;2.33;;;;;;;22.72;78.01;100512.53;5092598;28;20373;-73
2022/09/05 08:54:12;;;;;;;10.18;2.65;;;;;;;22.86;76.29;100507.13;5092107;28;20040;-73
2022/09/05 08:56:56;;;;;;;;;;;;;;;22.97;75.01;100502.50;5065055;28;20028;-73
2022/09/05 08:59:40;;;;;;;5.45;2.72;;;;;;;23.09;74.29;100497.81;5085511;28;19990;-73
2022/09/05 09:02:33;;;;;;;5.65;2.50;;;;;;;23.24;75.06;100511.03;5042364;28;20384;-73
2022/09/05 09:05:14;;;;;;;6.88;2.45;;;;;;;23.42;75.44;100505.63;5061506;28;20046;-74
2022/09/05 09:07:56;;;;;;;5.25;2.53;;;;;;;23.62;73.93;100514.84;5084214;28;20040;-74
2022/09/05 09:10:56;;;;;;;8.23;2.10;;;;;;;23.78;72.69;100509.84;5068420;28;20036;-74
2022/09/05 09:13:53;;;;;;;6.30;2.15;;;;;;;23.95;70.75;100507.63;5059914;28;20066;-73
2022/09/05 09:16:38;;;;;;;6.65;2.20;;;;;;;24.15;69.79;100511.09;5005788;28;20062;-73
2022/09/05 09:19:45;;;;;;;6.68;2.30;;;;;;;24.25;69.73;100508.41;5089401;28;20039;-74
2022/09/05 09:22:38;;;;;;;4.85;2.30;;;;;;;24.41;69.84;100507.38;5029010;28;20591;-73
2022/09/05 09:25:13;;;;;;;5.10;2.22;;;;;;;24.52;68.18;100511.19;5017301;28;20051;-73
2022/09/05 09:27:49;;;;;;;5.18;2.10;;;;;;;24.63;67.61;100503.59;5013218;28;20046;-74
2022/09/05 09:30:15;;;;;;;6.50;1.80;;;;;;;24.72;68.06;100504.06;5010207;28;20033;-74
2022/09/05 09:32:43;;;;;;;3.80;2.10;;;;;;;24.81;67.59;100500.91;4993029;28;20021;-74
2022/09/05 09:35:15;;;;;;;8.00;2.28;;;;;;;24.89;67.65;100507.47;5029737;28;20040;-74
2022/09/05 09:38:02;;;;;;;5.43;2.30;;;;;;;24.94;67.80;100501.44;5034525;28;20038;-74
2022/09/05 09:40:44;;;;;;;8.75;2.63;;;;;;;25.10;68.09;100496.31;5009320;28;20038;-74
2022/09/05 09:43:26;;;;;;;4.05;1.90;;;;;;;25.29;65.87;100492.41;5025312;28;20037;-74
2022/09/05 09:46:10;;;;;;;6.90;1.80;;;;;;;25.51;63.63;100493.38;5032342;28;20057;-74
2022/09/05 09:49:06;;;;;;;5.13;1.50;;;;;;;25.66;62.39;100487.75;5018323;28;20037;-74
2022/09/05 09:51:40;;;;;;;4.30;1.50;;;;;;;25.85;60.56;100491.16;5021048;28;20124;-75
2022/09/05 09:54:24;;;;;;;3.45;1.65;;;;;;;25.95;59.42;100472.50;5066563;28;20114;-74
2022/09/05 09:57:08;;;;;;;3.65;1.58;;;;;;;26.10;59.39;100478.25;5049681;28;20047;-74
2022/09/05 09:59:52;;;;;;;4.45;1.58;;;;;;;26.23;58.79;100473.81;5056970;28;20564;-74
2022/09/05 10:02:36;;;;;;;5.80;1.45;;;;;;;26.30;58.92;100460.44;5060410;28;20103;-74
2022/09/05 10:05:21;;;;;;;4.63;1.60;;;;;;;26.39;59.33;100460.03;5077683;28;20085;-74
2022/09/05 10:08:13;;;;;;;4.57;1.45;;;;;;;26.42;58.29;100461.25;5091675;28;20036;-74
2022/09/05 10:10:57;;;;;;;4.78;1.80;;;;;;;26.45;57.74;100458.41;5061705;28;20060;-74
2022/09/05 10:13:41;;;;;;;6.03;1.52;;;;;;;26.47;57.77;100463.72;5093862;28;20047;-74
2022/09/05 10:16:24;;;;;;;4.10;1.50;;;;;;;26.57;57.02;100474.31;5097072;28;20420;-74
2022/09/05 10:19:15;;;;;;;6.32;1.23;;;;;;;26.64;56.81;100462.16;5081376;28;20033;-74
2022/09/05 10:22:12;;;;;;;2.25;1.13;;;;;;;26.66;56.79;100454.00;5049639;28;20361;-74
2022/09/05 10:24:53;;;;;;;6.63;1.70;;;;;;;26.66;56.24;100448.28;5076888;28;20096;-74
2022/09/05 10:27:28;;;;;;;3.90;1.75;;;;;;;26.62;55.75;100436.09;5079002;28;20365;-74
2022/09/05 10:30:07;;;;;;;5.78;1.50;;;;;;;26.48;55.44;100451.91;5058669;28;20033;-74
2022/09/05 10:32:42;;;;;;;4.07;1.48;;;;;;;26.44;56.56;100448.25;5077541;28;20028;-74
2022/09/05 10:35:13;;;;;;;6.90;1.40;;;;;;;26.40;56.93;100443.75;5085560;28;20036;-74
2022/09/05 10:38:10;;;;;;;3.13;1.30;;;;;;;26.35;56.87;100436.41;5051090;28;20432;-74
2022/09/05 10:40:35;;;;;;;4.88;1.88;;;;;;;26.34;56.71;100428.31;5077680;28;20479;-74
2022/09/05 10:43:13;;;;;;;5.07;1.50;;;;;;;26.32;56.86;100422.19;5061617;28;20134;-74
2022/09/05 10:46:14;;;;;;;4.30;1.70;;;;;;;26.34;57.22;100429.13;5077492;28;20095;-74
2022/09/05 10:48:53;;;;;;;5.35;1.67;;;;;;;26.40;57.03;100415.28;5027480;28;20028;-74
2022/09/05 10:51:29;;;;;;;5.53;1.85;;;;;;;26.46;57.56;100405.94;5045630;28;20039;-74
2022/09/05 10:54:10;;;;;;;2.15;1.40;;;;;;;26.49;56.93;100405.16;5072715;28;20049;-74
2022/09/05 10:56:42;;;;;;;4.30;1.50;;;;;;;26.48;55.91;100400.66;5074310;28;20032;-74
2022/09/05 10:59:19;;;;;;;4.25;1.27;;;;;;;26.46;55.74;100414.47;5083848;28;20071;-74
2022/09/05 11:02:03;;;;;;;4.47;1.50;;;;;;;26.35;54.96;100410.00;5039874;28;20511;-74
2022/09/05 11:04:52;;;;;;;3.20;1.25;;;;;;;26.39;54.80;100400.25;5060435;28;20063;-74
2022/09/05 11:07:23;;;;;;;8.18;1.52;;;;;;;26.41;54.43;100400.66;5059284;28;20046;-74
2022/09/05 11:09:58;;;;;;;2.83;1.15;;;;;;;26.44;54.10;100402.69;5064616;28;20032;-74
2022/09/05 11:12:27;;;;;;;3.80;1.30;;;;;;;26.46;54.90;100405.94;5058075;28;20044;-74
2022/09/05 11:14:56;;;;;;;5.85;1.30;;;;;;;26.46;54.78;100403.09;5070630;28;20373;-74
2022/09/05 11:17:43;;;;;;;4.22;1.15;;;;;;;26.48;55.19;100403.50;5043664;28;20063;-74
2022/09/05 11:20:30;;;;;;;2.97;1.10;;;;;;;26.42;54.70;100407.97;5044429;28;20051;-74
2022/09/05 11:23:00;;;;;;;3.78;1.40;;;;;;;26.39;54.38;100396.59;5056347;28;20028;-74
2022/09/05 11:25:26;;;;;;;3.50;1.05;;;;;;;26.39;55.11;100400.25;5057830;28;20537;-74
2022/09/05 11:27:52;;;;;;;3.72;1.20;;;;;;;26.40;54.99;100393.31;5061359;28;20028;-74
2022/09/05 11:30:22;;;;;;;3.05;1.45;;;;;;;26.39;55.02;100386.00;5057404;28;20028;-74
2022/09/05 11:33:08;;;;;;;4.25;1.42;;;;;;;26.39;54.56;100380.31;5052563;28;20040;-74
2022/09/05 11:35:39;;;;;;;4.82;1.30;;;;;;;26.34;54.28;100375.03;5049938;28;20055;-73
2022/09/05 11:38:08;;;;;;;2.85;0.98;;;;;;;26.37;53.02;100367.72;5029941;28;20060;-74
2022/09/05 11:40:59;;;;;;;3.63;1.08;;;;;;;26.39;53.43;100365.28;5074593;28;20385;-73
2022/09/05 11:43:48;;;;;;;2.63;0.90;;;;;;;26.39;52.41;100368.94;5028023;28;20037;-74
2022/09/05 11:46:36;;;;;;;4.53;0.98;;;;;;;26.48;52.14;100363.63;5058164;28;20127;-73
2022/09/05 11:49:41;;;;;;;2.17;1.00;;;;;;;26.56;51.63;100352.28;5089668;28;20039;-74
2022/09/05 11:52:44;;;;;;;2.65;1.00;;;;;;;26.62;50.73;100344.97;5073946;28;20025;-74
2022/09/05 11:55:28;;;;;;;;;;;;;;;26.72;51.71;100338.44;5057467;28;20443;-74
2022/09/05 11:58:49;;;;;;;2.67;0.80;;;;;;;26.87;49.90;100334.34;5092245;28;19923;-73
2022/09/05 12:01:52;;;;;;;3.72;0.80;;;;;;;27.08;50.96;100332.66;4983642;28;20106;-73
2022/09/05 12:04:36;;;;;;;3.15;0.90;;;;;;;27.30;50.09;100351.38;5094220;28;20040;-73
2022/09/05 12:07:04;;;;;;;3.58;0.90;;;;;;;27.44;51.19;100347.63;5052327;28;20036;-73
2022/09/05 12:09:51;;;;;;;4.82;1.30;;;;;;;27.55;50.71;100362.69;5095082;28;20388;-74
2022/09/05 12:12:44;;;;;;;4.53;1.17;;;;;;;27.71;49.89;100365.03;5092479;28;20032;-74
2022/09/05 12:15:15;;;;;;;4.15;1.27;;;;;;;27.77;49.63;100357.66;5061138;28;20035;-74
2022/09/05 12:17:51;;;;;;;4.82;1.00;;;;;;;27.89;49.07;100350.72;5035741;28;20374;-74
2022/09/05 12:20:54;;;;;;;4.45;1.30;;;;;;;27.93;48.64;100347.84;5060744;28;20032;-73
2022/09/05 12:23:41;;;;;;;3.45;1.08;;;;;;;28.02;48.58;100345.31;5075988;28;20051;-73
2022/09/05 12:26:12;;;;;;;2.72;0.82;;;;;;;28.11;48.28;100359.97;5071866;28;20032;-74
2022/09/05 12:28:44;;;;;;;2.92;1.23;;;;;;;28.16;48.46;100353.78;5061602;28;20119;-73
2022/09/05 12:31:15;;;;;;;2.75;0.98;;;;;;;28.10;48.72;100352.63;5045688;28;20043;-73
2022/09/05 12:33:44;;;;;;;3.92;1.15;;;;;;;28.13;48.76;100350.97;5035573;28;20050;-73